createdAt,value
2023-03-12T00:00:11.471Z,2.50
2023-03-12T00:02:38.746Z,2.50
2023-03-12T00:05:06.688Z,2.40
2023-03-12T00:07:36.431Z,2.40
2023-03-12T00:10:05.804Z,2.40
2023-03-12T00:12:33.017Z,2.30
2023-03-12T00:15:00.900Z,2.30
2023-03-12T00:17:30.285Z,2.30
2023-03-12T00:19:57.400Z,2.20
2023-03-12T00:22:25.806Z,2.20
2023-03-12T00:24:55.812Z,2.20
2023-03-12T00:27:25.469Z,2.10
2023-03-12T00:29:52.630Z,2.10
2023-03-12T00:32:20.296Z,2.00
2023-03-12T00:34:56.512Z,2.00
2023-03-12T00:37:23.636Z,1.90
2023-03-12T00:39:51.186Z,1.90
2023-03-12T00:42:18.768Z,1.90
2023-03-12T00:44:46.107Z,1.80
2023-03-12T00:47:14.000Z,1.80
2023-03-12T00:49:41.265Z,1.70
2023-03-12T00:52:08.674Z,1.70
2023-03-12T00:54:35.802Z,1.60
2023-03-12T00:57:03.184Z,1.60
2023-03-12T00:59:31.785Z,1.60
2023-03-12T01:01:58.898Z,1.60
2023-03-12T01:04:26.022Z,1.60
2023-03-12T01:06:53.133Z,1.60
2023-03-12T01:09:20.304Z,1.60
2023-03-12T01:11:47.420Z,1.50
2023-03-12T01:14:14.607Z,1.60
2023-03-12T01:16:41.715Z,1.50
2023-03-12T01:19:08.964Z,1.50
2023-03-12T01:21:36.262Z,1.50
2023-03-12T01:24:03.598Z,1.50
2023-03-12T01:26:30.827Z,1.50
2023-03-12T01:28:57.965Z,1.50
2023-03-12T01:31:25.616Z,1.40
2023-03-12T01:33:54.110Z,1.40
2023-03-12T01:36:25.231Z,1.40
2023-03-12T01:38:55.399Z,1.30
2023-03-12T01:41:24.767Z,1.30
2023-03-12T01:43:52.390Z,1.20
2023-03-12T01:46:36.706Z,1.20
2023-03-12T01:49:03.829Z,1.20
2023-03-12T01:51:45.024Z,1.10
2023-03-12T01:54:34.375Z,1.10
2023-03-12T01:57:04.268Z,1.10
2023-03-12T02:00:05.699Z,1.00
2023-03-12T02:02:34.150Z,1.00
2023-03-12T02:05:31.514Z,1.00
2023-03-12T02:07:59.379Z,1.00
2023-03-12T02:10:27.321Z,0.90
2023-03-12T02:12:54.755Z,0.90
2023-03-12T02:15:22.230Z,0.90
2023-03-12T02:17:49.393Z,0.90
2023-03-12T02:20:32.138Z,0.90
2023-03-12T02:23:38.091Z,0.80
2023-03-12T02:26:06.947Z,0.80
2023-03-12T02:28:42.631Z,0.80
2023-03-12T02:31:13.070Z,0.80
2023-03-12T02:33:40.653Z,0.80
2023-03-12T02:36:09.351Z,0.70
2023-03-12T02:38:54.214Z,0.70
2023-03-12T02:41:26.820Z,0.70
2023-03-12T02:44:11.291Z,0.60
2023-03-12T02:46:51.834Z,0.60
2023-03-12T02:49:21.823Z,0.60
2023-03-12T02:51:49.930Z,0.50
2023-03-12T02:54:20.549Z,0.50
2023-03-12T02:56:48.639Z,0.50
2023-03-12T02:59:16.721Z,0.50
2023-03-12T03:01:44.285Z,0.40
2023-03-12T03:04:13.061Z,0.40
2023-03-12T03:06:43.215Z,0.40
2023-03-12T03:09:10.558Z,0.40
2023-03-12T03:11:37.642Z,0.30
2023-03-12T03:14:06.976Z,0.30
2023-03-12T03:16:34.762Z,0.30
2023-03-12T03:19:02.044Z,0.30
2023-03-12T03:21:30.289Z,0.30
2023-03-12T03:23:57.405Z,0.30
2023-03-12T03:26:25.218Z,0.30
2023-03-12T03:28:52.677Z,0.30
2023-03-12T03:31:19.961Z,0.30
2023-03-12T03:33:47.654Z,0.30
2023-03-12T03:36:15.291Z,0.30
2023-03-12T03:38:47.053Z,0.30
2023-03-12T03:41:14.192Z,0.30
2023-03-12T03:43:41.358Z,0.30
2023-03-12T03:46:08.539Z,0.30
2023-03-12T03:48:35.665Z,0.20
2023-03-12T03:51:05.717Z,0.30
2023-03-12T03:53:34.362Z,0.30
2023-03-12T03:56:13.826Z,0.20
2023-03-12T03:58:41.023Z,0.20
2023-03-12T04:01:08.645Z,0.20
2023-03-12T04:03:36.322Z,0.20
2023-03-12T04:06:06.224Z,0.20
2023-03-12T04:08:35.714Z,0.20
2023-03-12T04:11:18.009Z,0.20
2023-03-12T04:13:45.885Z,0.10
2023-03-12T04:16:14.507Z,0.10
2023-03-12T04:18:41.902Z,0.10
2023-03-12T04:21:12.830Z,0.10
2023-03-12T04:23:40.323Z,0.10
2023-03-12T04:26:08.378Z,0.10
2023-03-12T04:28:36.594Z,0.10
2023-03-12T04:31:07.217Z,0.10
2023-03-12T04:33:37.741Z,0.10
2023-03-12T04:36:06.316Z,0.10
2023-03-12T04:38:33.852Z,0.10
2023-03-12T04:41:09.661Z,0.10
2023-03-12T04:43:36.853Z,0.10
2023-03-12T04:46:04.624Z,0.10
2023-03-12T04:48:31.841Z,0.00
2023-03-12T04:50:58.939Z,0.00
2023-03-12T04:53:26.556Z,0.00
2023-03-12T04:55:53.829Z,0.00
2023-03-12T04:58:21.867Z,0.00
2023-03-12T05:00:50.221Z,0.00
2023-03-12T05:03:18.208Z,0.00
2023-03-12T05:05:45.338Z,0.00
2023-03-12T05:08:12.550Z,0.00
2023-03-12T05:10:40.157Z,0.10
2023-03-12T05:13:27.475Z,0.00
2023-03-12T05:15:54.587Z,0.00
2023-03-12T05:18:21.878Z,0.10
2023-03-12T05:21:00.232Z,0.10
2023-03-12T05:23:27.999Z,0.10
2023-03-12T05:25:55.197Z,0.10
2023-03-12T05:28:27.720Z,0.10
2023-03-12T05:31:00.232Z,0.10
2023-03-12T05:33:29.154Z,0.10
2023-03-12T05:35:56.468Z,0.10
2023-03-12T05:38:23.621Z,0.10
2023-03-12T05:40:55.958Z,0.10
2023-03-12T05:43:23.668Z,0.10
2023-03-12T05:45:51.009Z,0.20
2023-03-12T05:48:18.308Z,0.10
2023-03-12T05:50:46.084Z,0.10
2023-03-12T05:53:13.147Z,0.10
2023-03-12T05:55:40.944Z,0.20
2023-03-12T05:58:08.639Z,0.20
2023-03-12T06:00:38.104Z,0.20
2023-03-12T06:03:06.019Z,0.20
2023-03-12T06:05:35.436Z,0.20
2023-03-12T06:08:04.812Z,0.30
2023-03-12T06:10:32.014Z,0.30
2023-03-12T06:12:59.165Z,0.40
2023-03-12T06:15:26.296Z,0.40
2023-03-12T06:17:53.413Z,0.50
2023-03-12T06:20:20.656Z,0.50
2023-03-12T06:22:47.728Z,0.60
2023-03-12T06:25:15.378Z,0.60
2023-03-12T06:27:42.621Z,0.70
2023-03-12T06:30:10.700Z,0.80
2023-03-12T06:32:37.890Z,0.80
2023-03-12T06:35:06.101Z,1.00
2023-03-12T06:37:33.310Z,1.10
2023-03-12T06:40:00.451Z,1.20
2023-03-12T06:42:28.080Z,1.30
2023-03-12T06:44:55.288Z,1.30
2023-03-12T06:47:22.480Z,1.40
2023-03-12T06:49:49.590Z,1.40
2023-03-12T06:52:16.775Z,1.50
2023-03-12T06:54:44.006Z,1.60
2023-03-12T06:57:11.146Z,1.70
2023-03-12T06:59:38.279Z,1.70
2023-03-12T07:02:05.633Z,1.80
2023-03-12T07:04:32.773Z,1.90
2023-03-12T07:07:00.357Z,2.00
2023-03-12T07:09:27.480Z,2.10
2023-03-12T07:11:54.565Z,2.30
2023-03-12T07:14:21.743Z,2.40
2023-03-12T07:16:49.033Z,2.50
2023-03-12T07:19:16.682Z,2.60
2023-03-12T07:21:43.791Z,2.70
2023-03-12T07:24:10.872Z,2.80
2023-03-12T07:26:38.044Z,2.90
2023-03-12T07:29:05.227Z,3.00
2023-03-12T07:31:32.463Z,3.10
2023-03-12T07:33:59.741Z,3.20
2023-03-12T07:36:27.057Z,3.30
2023-03-12T07:38:54.229Z,3.40
2023-03-12T07:41:21.579Z,3.60
2023-03-12T07:43:49.369Z,3.70
2023-03-12T07:46:16.645Z,3.80
2023-03-12T07:48:44.843Z,3.90
2023-03-12T07:51:12.000Z,4.00
2023-03-12T07:53:39.356Z,4.10
2023-03-12T07:56:07.384Z,4.20
2023-03-12T07:58:36.565Z,4.40
2023-03-12T08:01:03.938Z,4.60
2023-03-12T08:03:31.236Z,4.60
2023-03-12T08:06:01.632Z,4.70
2023-03-12T08:08:29.850Z,4.80
2023-03-12T08:10:58.345Z,4.90
2023-03-12T08:13:26.605Z,4.90
2023-03-12T08:15:54.864Z,5.00
2023-03-12T08:18:23.090Z,5.00
2023-03-12T08:20:54.756Z,5.10
2023-03-12T08:23:22.989Z,5.30
2023-03-12T08:25:51.340Z,5.40
2023-03-12T08:28:20.071Z,5.50
2023-03-12T08:30:50.182Z,5.70
2023-03-12T08:33:17.763Z,5.80
2023-03-12T08:35:45.538Z,5.90
2023-03-12T08:38:12.842Z,6.00
2023-03-12T08:40:40.240Z,6.20
2023-03-12T08:43:08.036Z,6.30
2023-03-12T08:45:38.304Z,6.50
2023-03-12T08:48:07.188Z,6.60
2023-03-12T08:50:34.433Z,6.70
2023-03-12T08:53:01.580Z,7.00
2023-03-12T08:55:29.715Z,7.10
2023-03-12T08:57:57.645Z,7.30
2023-03-12T09:00:25.213Z,7.40
2023-03-12T09:02:53.981Z,7.60
2023-03-12T09:05:21.121Z,7.60
2023-03-12T09:07:50.078Z,7.80
2023-03-12T09:10:17.958Z,7.90
2023-03-12T09:12:45.298Z,8.20
2023-03-12T09:15:12.579Z,8.40
2023-03-12T09:17:39.920Z,8.50
2023-03-12T09:20:14.022Z,8.70
2023-03-12T09:22:42.714Z,8.90
2023-03-12T09:25:11.445Z,9.10
2023-03-12T09:27:40.800Z,9.40
2023-03-12T09:30:10.815Z,9.60
2023-03-12T09:32:38.264Z,9.70
2023-03-12T09:35:07.529Z,10.00
2023-03-12T09:37:35.739Z,10.20
2023-03-12T09:40:07.612Z,10.50
2023-03-12T09:42:57.393Z,10.70
2023-03-12T09:45:42.831Z,10.70
2023-03-12T09:48:48.442Z,10.80
2023-03-12T09:51:31.538Z,10.90
2023-03-12T09:54:03.789Z,11.00
2023-03-12T09:56:31.570Z,11.10
2023-03-12T09:58:58.825Z,11.10
2023-03-12T10:01:49.585Z,11.00
2023-03-12T10:04:56.330Z,10.70
2023-03-12T10:07:37.340Z,10.60
2023-03-12T10:10:16.348Z,10.50
2023-03-12T10:13:17.139Z,10.60
2023-03-12T10:16:13.614Z,10.80
2023-03-12T10:19:14.429Z,11.10
2023-03-12T10:22:14.497Z,11.20
2023-03-12T10:25:35.567Z,11.20
2023-03-12T10:28:37.750Z,11.20
2023-03-12T10:31:27.197Z,11.30
2023-03-12T10:34:01.035Z,11.50
2023-03-12T10:36:38.819Z,11.70
2023-03-12T10:39:17.058Z,11.90
2023-03-12T10:41:47.043Z,12.10
2023-03-12T10:44:25.463Z,12.20
2023-03-12T10:47:32.057Z,12.20
2023-03-12T10:50:17.517Z,12.00
2023-03-12T10:52:47.331Z,12.00
2023-03-12T10:55:20.842Z,12.10
2023-03-12T10:57:48.839Z,12.20
2023-03-12T11:00:32.666Z,12.10
2023-03-12T11:03:18.266Z,12.00
2023-03-12T11:05:53.134Z,12.40
2023-03-12T11:08:40.522Z,14.40
2023-03-12T11:11:07.707Z,15.10
2023-03-12T11:13:41.565Z,15.30
2023-03-12T11:16:17.960Z,15.40
2023-03-12T11:19:05.650Z,15.90
2023-03-12T11:21:40.289Z,16.60
2023-03-12T11:24:14.359Z,16.60
2023-03-12T11:26:59.411Z,16.90
2023-03-12T11:29:51.042Z,16.70
2023-03-12T11:32:41.191Z,16.10
2023-03-12T11:35:18.437Z,15.50
2023-03-12T11:38:26.988Z,15.10
2023-03-12T11:41:20.405Z,14.50
2023-03-12T11:44:31.850Z,14.30
2023-03-12T11:47:27.620Z,14.50
2023-03-12T11:50:59.017Z,14.60
2023-03-12T11:53:47.424Z,14.50
2023-03-12T11:56:33.172Z,14.60
2023-03-12T11:59:25.191Z,14.80
2023-03-12T12:02:11.729Z,14.60
2023-03-12T12:05:03.572Z,14.60
2023-03-12T12:07:36.778Z,14.70
2023-03-12T12:10:15.218Z,14.70
2023-03-12T12:13:03.893Z,14.60
2023-03-12T12:15:53.040Z,14.50
2023-03-12T12:18:47.167Z,14.40
2023-03-12T12:21:55.753Z,14.10
2023-03-12T12:24:44.029Z,14.10
2023-03-12T12:27:40.513Z,15.00
2023-03-12T12:30:07.984Z,15.10
2023-03-12T12:32:43.931Z,15.20
2023-03-12T12:35:24.724Z,15.20
2023-03-12T12:38:12.671Z,15.30
2023-03-12T12:40:51.496Z,15.60
2023-03-12T12:43:28.116Z,15.80
2023-03-12T12:46:04.357Z,16.10
2023-03-12T12:48:37.475Z,16.30
2023-03-12T12:51:08.927Z,16.50
2023-03-12T12:54:03.773Z,16.40
2023-03-12T12:56:51.004Z,16.00
2023-03-12T12:59:36.933Z,15.70
2023-03-12T13:02:14.416Z,15.30
2023-03-12T13:04:42.314Z,14.90
2023-03-12T13:07:12.597Z,14.50
2023-03-12T13:09:52.610Z,14.30
2023-03-12T13:12:33.329Z,14.10
2023-03-12T13:15:02.754Z,14.00
2023-03-12T13:17:52.141Z,13.70
2023-03-12T13:20:22.274Z,13.50
2023-03-12T13:23:18.954Z,13.30
2023-03-12T13:26:05.007Z,13.10
2023-03-12T13:28:56.721Z,13.00
2023-03-12T13:31:29.883Z,12.90
2023-03-12T13:34:15.956Z,12.80
2023-03-12T13:36:46.452Z,12.80
2023-03-12T13:39:16.995Z,12.70
2023-03-12T13:41:56.067Z,12.70
2023-03-12T13:44:23.661Z,12.60
2023-03-12T13:47:11.204Z,12.50
2023-03-12T13:49:47.244Z,12.40
2023-03-12T13:52:21.078Z,12.30
2023-03-12T13:55:07.938Z,12.20
2023-03-12T13:57:49.600Z,12.20
2023-03-12T14:00:38.014Z,12.00
2023-03-12T14:03:40.414Z,11.90
2023-03-12T14:06:07.969Z,11.70
2023-03-12T14:08:59.034Z,11.60
2023-03-12T14:11:58.072Z,11.40
2023-03-12T14:14:51.392Z,11.30
2023-03-12T14:17:28.533Z,11.30
2023-03-12T14:20:19.351Z,11.30
2023-03-12T14:23:07.650Z,11.20
2023-03-12T14:25:41.608Z,11.10
2023-03-12T14:28:21.958Z,10.90
2023-03-12T14:31:10.821Z,10.80
2023-03-12T14:33:57.236Z,10.70
2023-03-12T14:36:50.713Z,10.60
2023-03-12T14:39:56.049Z,10.50
2023-03-12T14:42:35.795Z,10.40
2023-03-12T14:45:19.407Z,10.40
2023-03-12T14:47:52.883Z,10.40
2023-03-12T14:50:23.059Z,10.30
2023-03-12T14:52:51.878Z,10.20
2023-03-12T14:55:26.390Z,10.20
2023-03-12T14:58:20.854Z,10.20
2023-03-12T15:00:59.069Z,10.10
2023-03-12T15:03:29.476Z,10.10
2023-03-12T15:05:58.188Z,10.10
2023-03-12T15:08:26.350Z,10.10
2023-03-12T15:11:01.274Z,10.10
2023-03-12T15:13:29.102Z,10.10
2023-03-12T15:15:57.121Z,10.10
2023-03-12T15:18:31.225Z,10.10
2023-03-12T15:21:02.247Z,10.00
2023-03-12T15:23:33.636Z,10.00
2023-03-12T15:26:30.371Z,10.00
2023-03-12T15:29:28.411Z,9.90
2023-03-12T15:31:59.895Z,9.90
2023-03-12T15:34:38.957Z,9.90
2023-03-12T15:37:41.225Z,9.80
2023-03-12T15:40:25.686Z,9.80
2023-03-12T15:43:02.593Z,9.80
2023-03-12T15:45:41.585Z,9.70
2023-03-12T15:48:42.496Z,9.70
2023-03-12T15:51:36.580Z,9.70
2023-03-12T15:54:27.627Z,9.70
2023-03-12T15:56:58.031Z,9.70
2023-03-12T15:59:28.800Z,9.60
2023-03-12T16:01:58.422Z,9.70
2023-03-12T16:04:26.376Z,9.60
2023-03-12T16:06:54.587Z,9.60
2023-03-12T16:09:27.664Z,9.60
2023-03-12T16:11:57.514Z,9.60
2023-03-12T16:14:34.915Z,9.60
2023-03-12T16:17:03.320Z,9.50
2023-03-12T16:19:36.057Z,9.50
2023-03-12T16:22:04.635Z,9.40
2023-03-12T16:24:35.098Z,9.50
2023-03-12T16:27:07.684Z,9.40
2023-03-12T16:29:39.879Z,9.40
2023-03-12T16:32:14.712Z,9.40
2023-03-12T16:34:43.766Z,9.40
2023-03-12T16:37:13.832Z,9.40
2023-03-12T16:39:43.913Z,9.30
2023-03-12T16:42:20.178Z,9.40
2023-03-12T16:44:48.121Z,9.40
2023-03-12T16:47:16.375Z,9.30
2023-03-12T16:49:45.298Z,9.30
2023-03-12T16:52:26.710Z,9.20
2023-03-12T16:54:54.740Z,9.20
2023-03-12T16:57:40.628Z,9.20
2023-03-12T17:00:21.099Z,9.20
2023-03-12T17:02:51.909Z,9.20
2023-03-12T17:05:19.984Z,9.20
2023-03-12T17:07:47.833Z,9.10
2023-03-12T17:10:17.158Z,9.10
2023-03-12T17:12:48.230Z,9.20
2023-03-12T17:15:26.530Z,9.20
2023-03-12T17:18:00.367Z,9.10
2023-03-12T17:20:29.552Z,9.10
2023-03-12T17:22:59.987Z,9.10
2023-03-12T17:25:33.400Z,9.10
2023-03-12T17:28:01.401Z,9.10
2023-03-12T17:30:31.623Z,9.10
2023-03-12T17:33:07.201Z,9.00
2023-03-12T17:35:36.124Z,9.10
2023-03-12T17:38:05.819Z,9.10
2023-03-12T17:40:35.953Z,9.00
2023-03-12T17:43:04.661Z,9.00
2023-03-12T17:45:37.197Z,9.00
2023-03-12T17:48:07.151Z,9.00
2023-03-12T17:50:36.704Z,9.00
2023-03-12T17:53:05.490Z,9.00
2023-03-12T17:55:36.377Z,9.00
2023-03-12T17:58:06.675Z,9.00
2023-03-12T18:00:35.528Z,9.00
2023-03-12T18:03:04.142Z,8.90
2023-03-12T18:05:32.031Z,8.90
2023-03-12T18:08:03.268Z,8.90
2023-03-12T18:10:32.282Z,8.90
2023-03-12T18:13:00.632Z,8.90
2023-03-12T18:15:29.561Z,8.90
2023-03-12T18:17:59.244Z,8.90
2023-03-12T18:20:37.806Z,8.90
2023-03-12T18:23:08.462Z,8.90
2023-03-12T18:25:39.748Z,8.90
2023-03-12T18:28:08.448Z,8.90
2023-03-12T18:30:38.727Z,8.90
2023-03-12T18:33:07.202Z,8.90
2023-03-12T18:35:37.095Z,8.90
2023-03-12T18:38:05.647Z,8.80
2023-03-12T18:40:34.671Z,8.80
2023-03-12T18:43:03.713Z,8.80
2023-03-12T18:45:34.655Z,8.80
2023-03-12T18:48:02.883Z,8.80
2023-03-12T18:50:30.937Z,8.80
2023-03-12T18:52:59.099Z,8.80
2023-03-12T18:55:27.567Z,8.80
2023-03-12T18:57:55.959Z,8.80
2023-03-12T19:00:25.552Z,8.90
2023-03-12T19:02:54.308Z,8.90
2023-03-12T19:05:26.099Z,8.90
2023-03-12T19:07:55.747Z,8.90
2023-03-12T19:10:28.247Z,8.90
2023-03-12T19:12:59.123Z,8.90
2023-03-12T19:15:29.254Z,8.90
2023-03-12T19:17:59.792Z,8.90
2023-03-12T19:20:29.679Z,8.90
2023-03-12T19:22:57.966Z,8.90
2023-03-12T19:25:27.612Z,8.90
2023-03-12T19:27:56.233Z,8.80
2023-03-12T19:30:27.751Z,8.80
2023-03-12T19:33:01.247Z,8.80
2023-03-12T19:35:30.082Z,8.80
2023-03-12T19:38:02.677Z,8.80
2023-03-12T19:40:31.003Z,8.80
2023-03-12T19:42:59.541Z,8.80
2023-03-12T19:45:28.442Z,8.70
2023-03-12T19:47:56.771Z,8.70
2023-03-12T19:50:25.016Z,8.60
2023-03-12T19:52:53.266Z,8.50
2023-03-12T19:55:21.398Z,8.40
2023-03-12T19:57:52.298Z,8.30
2023-03-12T20:00:22.679Z,8.30
2023-03-12T20:02:51.474Z,8.20
2023-03-12T20:05:20.263Z,8.10
2023-03-12T20:07:49.634Z,8.00
2023-03-12T20:10:18.441Z,7.90
2023-03-12T20:12:47.458Z,7.90
2023-03-12T20:15:16.072Z,7.70
2023-03-12T20:17:44.571Z,7.70
2023-03-12T20:20:13.658Z,7.60
2023-03-12T20:22:42.128Z,7.60
2023-03-12T20:25:11.771Z,7.60
2023-03-12T20:27:41.242Z,7.60
2023-03-12T20:30:13.870Z,7.50
2023-03-12T20:32:43.280Z,7.50
2023-03-12T20:35:12.520Z,7.50
2023-03-12T20:37:40.972Z,7.50
2023-03-12T20:40:12.109Z,7.60
2023-03-12T20:42:42.136Z,7.60
2023-03-12T20:45:11.337Z,7.60
2023-03-12T20:47:40.802Z,7.60
2023-03-12T20:50:12.026Z,7.50
2023-03-12T20:52:40.378Z,7.60
2023-03-12T20:55:09.279Z,7.50
2023-03-12T20:57:38.598Z,7.50
2023-03-12T21:00:10.952Z,7.50
2023-03-12T21:02:40.432Z,7.50
2023-03-12T21:05:11.788Z,7.60
2023-03-12T21:07:39.970Z,7.60
2023-03-12T21:10:09.599Z,7.60
2023-03-12T21:12:40.280Z,7.60
2023-03-12T21:15:10.964Z,7.60
2023-03-12T21:17:41.116Z,7.60
2023-03-12T21:20:13.694Z,7.70
2023-03-12T21:22:43.639Z,7.70
2023-03-12T21:25:12.641Z,7.70
2023-03-12T21:27:49.748Z,7.80
2023-03-12T21:30:20.165Z,7.80
2023-03-12T21:32:47.866Z,7.80
2023-03-12T21:35:15.628Z,7.90
2023-03-12T21:37:43.114Z,7.90
2023-03-12T21:40:11.536Z,7.90
2023-03-12T21:42:39.227Z,8.00
2023-03-12T21:45:08.199Z,8.00
2023-03-12T21:47:38.897Z,8.10
2023-03-12T21:50:06.565Z,8.10
2023-03-12T21:52:41.265Z,8.10
2023-03-12T21:55:11.339Z,8.10
2023-03-12T21:57:38.666Z,8.20
2023-03-12T22:00:11.196Z,8.20
2023-03-12T22:02:39.896Z,8.20
2023-03-12T22:05:08.557Z,8.20
2023-03-12T22:07:35.732Z,8.20
2023-03-12T22:10:04.655Z,8.20
2023-03-12T22:12:32.244Z,8.10
2023-03-12T22:14:59.403Z,8.20
2023-03-12T22:17:26.733Z,8.20
2023-03-12T22:19:53.886Z,8.20
2023-03-12T22:22:20.987Z,8.10
2023-03-12T22:24:48.087Z,8.10
2023-03-12T22:27:15.182Z,8.10
2023-03-12T22:29:43.540Z,8.10
2023-03-12T22:32:10.698Z,8.10
2023-03-12T22:34:38.912Z,8.10
2023-03-12T22:37:07.049Z,8.10
2023-03-12T22:39:34.258Z,8.10
2023-03-12T22:42:01.434Z,8.10
2023-03-12T22:44:28.523Z,8.10
2023-03-12T22:46:55.689Z,8.20
2023-03-12T22:49:22.892Z,8.20
2023-03-12T22:51:49.982Z,8.20
2023-03-12T22:54:17.093Z,8.20
2023-03-12T22:56:44.239Z,8.10
2023-03-12T22:59:11.302Z,8.10
2023-03-12T23:01:38.478Z,8.20
2023-03-12T23:04:06.408Z,8.20
2023-03-12T23:06:33.756Z,8.10
2023-03-12T23:09:01.058Z,8.10
2023-03-12T23:11:29.678Z,8.10
2023-03-12T23:14:12.314Z,8.10
2023-03-12T23:16:39.443Z,8.20
2023-03-12T23:19:06.924Z,8.10
2023-03-12T23:21:34.057Z,8.10
2023-03-12T23:24:01.209Z,8.10
2023-03-12T23:26:29.076Z,8.10
2023-03-12T23:28:58.423Z,8.10
2023-03-12T23:31:27.743Z,8.10
2023-03-12T23:33:56.775Z,8.10
2023-03-12T23:36:24.841Z,8.10
2023-03-12T23:38:52.548Z,8.10
2023-03-12T23:41:31.797Z,8.10
2023-03-12T23:43:59.928Z,8.10
2023-03-12T23:46:27.580Z,8.10
2023-03-12T23:48:55.488Z,8.10
2023-03-12T23:51:25.298Z,8.10
2023-03-12T23:53:57.658Z,8.10
2023-03-12T23:56:27.568Z,8.00
2023-03-12T23:58:54.697Z,8.00
